sensor_id;sensor_type;location;lat;lon;timestamp;pressure;altitude;pressure_sealevel;temperature;humidity
64078;BME280;51039;49.696;10.808;2023-04-27T00:01:11;98571.53;;;4.64;86.84
64078;BME280;51039;49.696;10.808;2023-04-27T00:03:37;98567.25;;;4.63;87.45
64078;BME280;51039;49.696;10.808;2023-04-27T00:06:03;98559.38;;;4.63;87.41
64078;BME280;51039;49.696;10.808;2023-04-27T00:08:28;98565.09;;;4.58;87.13
64078;BME280;51039;49.696;10.808;2023-04-27T00:10:53;98561.31;;;4.61;87.45
64078;BME280;51039;49.696;10.808;2023-04-27T00:13:20;98559.84;;;4.58;86.92
64078;BME280;51039;49.696;10.808;2023-04-27T00:15:45;98561.19;;;4.62;86.93
64078;BME280;51039;49.696;10.808;2023-04-27T00:18:11;98564.09;;;4.59;86.20
64078;BME280;51039;49.696;10.808;2023-04-27T00:20:36;98560.81;;;4.57;85.72
64078;BME280;51039;49.696;10.808;2023-04-27T00:23:01;98565.69;;;4.44;85.89
64078;BME280;51039;49.696;10.808;2023-04-27T00:25:26;98556.22;;;4.51;85.29
64078;BME280;51039;49.696;10.808;2023-04-27T00:27:52;98548.19;;;4.52;84.86
64078;BME280;51039;49.696;10.808;2023-04-27T00:30:17;98548.00;;;4.54;85.04
64078;BME280;51039;49.696;10.808;2023-04-27T00:32:42;98548.84;;;4.55;84.86
64078;BME280;51039;49.696;10.808;2023-04-27T00:35:08;98555.56;;;4.57;84.79
64078;BME280;51039;49.696;10.808;2023-04-27T00:37:34;98550.03;;;4.60;84.74
64078;BME280;51039;49.696;10.808;2023-04-27T00:39:59;98548.38;;;4.59;84.26
64078;BME280;51039;49.696;10.808;2023-04-27T00:42:25;98553.59;;;4.59;84.66
64078;BME280;51039;49.696;10.808;2023-04-27T00:44:50;98547.41;;;4.60;84.45
64078;BME280;51039;49.696;10.808;2023-04-27T00:47:15;98541.28;;;4.51;84.86
64078;BME280;51039;49.696;10.808;2023-04-27T00:49:41;98537.22;;;4.57;84.44
64078;BME280;51039;49.696;10.808;2023-04-27T00:52:07;98538.22;;;4.64;84.27
64078;BME280;51039;49.696;10.808;2023-04-27T00:54:32;98542.47;;;4.65;84.19
64078;BME280;51039;49.696;10.808;2023-04-27T00:56:58;98541.16;;;4.61;84.66
64078;BME280;51039;49.696;10.808;2023-04-27T00:59:24;98540.66;;;4.58;85.08
64078;BME280;51039;49.696;10.808;2023-04-27T01:01:49;98540.47;;;4.51;85.75
64078;BME280;51039;49.696;10.808;2023-04-27T01:04:15;98534.41;;;4.50;86.04
64078;BME280;51039;49.696;10.808;2023-04-27T01:06:41;98542.94;;;4.52;86.55
64078;BME280;51039;49.696;10.808;2023-04-27T01:09:07;98538.22;;;4.56;86.26
64078;BME280;51039;49.696;10.808;2023-04-27T01:11:33;98548.38;;;4.59;86.57
64078;BME280;51039;49.696;10.808;2023-04-27T01:14:02;98538.38;;;4.63;86.34
64078;BME280;51039;49.696;10.808;2023-04-27T01:16:29;98544.28;;;4.57;86.73
64078;BME280;51039;49.696;10.808;2023-04-27T01:18:54;98539.69;;;4.59;86.72
64078;BME280;51039;49.696;10.808;2023-04-27T01:21:19;98547.03;;;4.55;86.94
64078;BME280;51039;49.696;10.808;2023-04-27T01:23:45;98544.06;;;4.50;87.23
64078;BME280;51039;49.696;10.808;2023-04-27T01:26:10;98542.94;;;4.52;87.47
64078;BME280;51039;49.696;10.808;2023-04-27T01:28:37;98543.75;;;4.45;87.53
64078;BME280;51039;49.696;10.808;2023-04-27T01:31:03;98545.53;;;4.44;87.93
64078;BME280;51039;49.696;10.808;2023-04-27T01:33:28;98544.72;;;4.44;88.45
64078;BME280;51039;49.696;10.808;2023-04-27T01:35:53;98542.41;;;4.41;88.80
64078;BME280;51039;49.696;10.808;2023-04-27T01:38:18;98537.84;;;4.43;88.72
64078;BME280;51039;49.696;10.808;2023-04-27T01:40:44;98540.47;;;4.43;88.72
64078;BME280;51039;49.696;10.808;2023-04-27T01:43:09;98542.56;;;4.39;88.72
64078;BME280;51039;49.696;10.808;2023-04-27T01:45:34;98540.91;;;4.38;88.96
64078;BME280;51039;49.696;10.808;2023-04-27T01:48:00;98541.72;;;4.39;89.21
64078;BME280;51039;49.696;10.808;2023-04-27T01:50:25;98538.16;;;4.40;89.09
64078;BME280;51039;49.696;10.808;2023-04-27T01:52:51;98540.91;;;4.38;89.33
64078;BME280;51039;49.696;10.808;2023-04-27T01:55:16;98542.88;;;4.36;89.46
64078;BME280;51039;49.696;10.808;2023-04-27T01:57:42;98545.00;;;4.32;89.92
64078;BME280;51039;49.696;10.808;2023-04-27T02:00:07;98546.81;;;4.32;89.86
64078;BME280;51039;49.696;10.808;2023-04-27T02:02:33;98537.13;;;4.32;89.79
64078;BME280;51039;49.696;10.808;2023-04-27T02:04:58;98542.06;;;4.36;89.88
64078;BME280;51039;49.696;10.808;2023-04-27T02:07:23;98547.31;;;4.36;90.13
64078;BME280;51039;49.696;10.808;2023-04-27T02:09:49;98549.28;;;4.42;89.67
64078;BME280;51039;49.696;10.808;2023-04-27T02:12:14;98540.28;;;4.44;89.62
64078;BME280;51039;49.696;10.808;2023-04-27T02:14:40;98545.03;;;4.41;89.94
64078;BME280;51039;49.696;10.808;2023-04-27T02:17:05;98539.09;;;4.39;89.56
64078;BME280;51039;49.696;10.808;2023-04-27T02:19:30;98543.03;;;4.35;89.47
64078;BME280;51039;49.696;10.808;2023-04-27T02:21:56;98548.47;;;4.33;89.41
64078;BME280;51039;49.696;10.808;2023-04-27T02:24:28;98556.47;;;4.31;89.23
64078;BME280;51039;49.696;10.808;2023-04-27T02:26:53;98552.97;;;4.23;88.35
64078;BME280;51039;49.696;10.808;2023-04-27T02:29:19;98557.56;;;4.21;88.63
64078;BME280;51039;49.696;10.808;2023-04-27T02:31:44;98557.94;;;4.26;88.34
64078;BME280;51039;49.696;10.808;2023-04-27T02:34:10;98559.88;;;4.24;89.32
64078;BME280;51039;49.696;10.808;2023-04-27T02:36:35;98560.03;;;4.22;89.59
64078;BME280;51039;49.696;10.808;2023-04-27T02:39:01;98560.19;;;4.21;89.68
64078;BME280;51039;49.696;10.808;2023-04-27T02:41:29;98547.56;;;4.16;89.81
64078;BME280;51039;49.696;10.808;2023-04-27T02:43:55;98554.41;;;4.09;89.87
64078;BME280;51039;49.696;10.808;2023-04-27T02:46:20;98552.25;;;4.04;89.76
64078;BME280;51039;49.696;10.808;2023-04-27T02:48:46;98558.69;;;4.10;89.52
64078;BME280;51039;49.696;10.808;2023-04-27T02:51:11;98558.84;;;4.08;89.48
64078;BME280;51039;49.696;10.808;2023-04-27T02:53:36;98567.22;;;4.12;89.52
64078;BME280;51039;49.696;10.808;2023-04-27T02:56:02;98574.06;;;4.13;89.62
64078;BME280;51039;49.696;10.808;2023-04-27T02:58:27;98569.84;;;4.12;90.13
64078;BME280;51039;49.696;10.808;2023-04-27T03:00:53;98572.59;;;4.10;90.03
64078;BME280;51039;49.696;10.808;2023-04-27T03:03:19;98568.13;;;4.03;89.83
64078;BME280;51039;49.696;10.808;2023-04-27T03:05:45;98562.41;;;4.07;89.32
64078;BME280;51039;49.696;10.808;2023-04-27T03:08:10;98564.53;;;4.04;89.32
64078;BME280;51039;49.696;10.808;2023-04-27T03:10:35;98568.94;;;4.03;88.91
64078;BME280;51039;49.696;10.808;2023-04-27T03:13:01;98563.53;;;3.97;89.58
64078;BME280;51039;49.696;10.808;2023-04-27T03:15:26;98562.09;;;4.02;89.99
64078;BME280;51039;49.696;10.808;2023-04-27T03:17:51;98569.75;;;4.04;89.95
64078;BME280;51039;49.696;10.808;2023-04-27T03:20:16;98558.00;;;4.08;90.15
64078;BME280;51039;49.696;10.808;2023-04-27T03:22:42;98569.47;;;4.07;90.19
64078;BME280;51039;49.696;10.808;2023-04-27T03:25:09;98569.09;;;4.02;90.24
64078;BME280;51039;49.696;10.808;2023-04-27T03:27:35;98569.09;;;4.02;90.12
64078;BME280;51039;49.696;10.808;2023-04-27T03:30:00;98572.72;;;4.01;89.50
64078;BME280;51039;49.696;10.808;2023-04-27T03:32:27;98572.75;;;4.09;88.92
64078;BME280;51039;49.696;10.808;2023-04-27T03:34:52;98578.78;;;4.01;88.66
64078;BME280;51039;49.696;10.808;2023-04-27T03:37:17;98575.28;;;3.92;89.02
64078;BME280;51039;49.696;10.808;2023-04-27T03:39:43;98584.69;;;4.03;88.58
64078;BME280;51039;49.696;10.808;2023-04-27T03:42:09;98584.97;;;4.00;88.22
64078;BME280;51039;49.696;10.808;2023-04-27T03:44:34;98587.97;;;4.05;87.86
64078;BME280;51039;49.696;10.808;2023-04-27T03:47:00;98589.91;;;4.03;87.94
64078;BME280;51039;49.696;10.808;2023-04-27T03:49:25;98593.97;;;3.98;87.59
64078;BME280;51039;49.696;10.808;2023-04-27T03:51:51;98592.25;;;4.06;87.45
64078;BME280;51039;49.696;10.808;2023-04-27T03:54:17;98592.75;;;4.10;87.43
64078;BME280;51039;49.696;10.808;2023-04-27T03:56:42;98593.25;;;4.13;87.40
64078;BME280;51039;49.696;10.808;2023-04-27T03:59:08;98596.38;;;4.17;87.39
64078;BME280;51039;49.696;10.808;2023-04-27T04:01:34;98596.88;;;4.12;88.04
64078;BME280;51039;49.696;10.808;2023-04-27T04:04:00;98591.59;;;4.04;89.94
64078;BME280;51039;49.696;10.808;2023-04-27T04:06:25;98596.72;;;4.14;89.63
64078;BME280;51039;49.696;10.808;2023-04-27T04:08:51;98594.13;;;4.22;89.50
64078;BME280;51039;49.696;10.808;2023-04-27T04:11:17;98586.22;;;4.14;89.62
64078;BME280;51039;49.696;10.808;2023-04-27T04:13:42;98582.59;;;4.15;89.37
64078;BME280;51039;49.696;10.808;2023-04-27T04:16:08;98579.47;;;4.11;89.66
64078;BME280;51039;49.696;10.808;2023-04-27T04:18:34;98581.28;;;4.11;89.25
64078;BME280;51039;49.696;10.808;2023-04-27T04:21:00;98586.53;;;4.11;89.11
64078;BME280;51039;49.696;10.808;2023-04-27T04:23:26;98587.69;;;4.17;88.77
64078;BME280;51039;49.696;10.808;2023-04-27T04:25:51;98582.66;;;4.23;88.50
64078;BME280;51039;49.696;10.808;2023-04-27T04:28:18;98581.84;;;4.31;88.51
64078;BME280;51039;49.696;10.808;2023-04-27T04:30:43;98586.50;;;4.37;88.69
64078;BME280;51039;49.696;10.808;2023-04-27T04:33:09;98592.25;;;4.41;88.48
64078;BME280;51039;49.696;10.808;2023-04-27T04:35:38;98591.91;;;4.44;88.16
64078;BME280;51039;49.696;10.808;2023-04-27T04:38:04;98590.69;;;4.56;87.28
64078;BME280;51039;49.696;10.808;2023-04-27T04:40:29;98589.19;;;4.62;87.36
64078;BME280;51039;49.696;10.808;2023-04-27T04:42:55;98590.34;;;4.67;86.83
64078;BME280;51039;49.696;10.808;2023-04-27T04:45:20;98591.03;;;4.69;86.80
64078;BME280;51039;49.696;10.808;2023-04-27T04:47:46;98594.38;;;4.88;85.45
64078;BME280;51039;49.696;10.808;2023-04-27T04:50:12;98589.63;;;4.91;84.73
64078;BME280;51039;49.696;10.808;2023-04-27T04:52:38;98587.28;;;4.80;85.24
64078;BME280;51039;49.696;10.808;2023-04-27T04:55:03;98599.63;;;4.88;84.61
64078;BME280;51039;49.696;10.808;2023-04-27T04:57:29;98603.69;;;4.74;84.52
64078;BME280;51039;49.696;10.808;2023-04-27T04:59:55;98600.06;;;4.75;85.18
64078;BME280;51039;49.696;10.808;2023-04-27T05:02:20;98598.00;;;4.95;84.63
64078;BME280;51039;49.696;10.808;2023-04-27T05:04:46;98599.00;;;5.10;84.17
64078;BME280;51039;49.696;10.808;2023-04-27T05:07:11;98604.31;;;5.35;83.59
64078;BME280;51039;49.696;10.808;2023-04-27T05:09:37;98599.53;;;5.47;82.80
64078;BME280;51039;49.696;10.808;2023-04-27T05:12:02;98608.88;;;5.49;81.80
64078;BME280;51039;49.696;10.808;2023-04-27T05:14:28;98611.84;;;5.71;81.50
64078;BME280;51039;49.696;10.808;2023-04-27T05:16:53;98620.06;;;5.76;81.21
64078;BME280;51039;49.696;10.808;2023-04-27T05:19:19;98616.94;;;5.64;81.45
64078;BME280;51039;49.696;10.808;2023-04-27T05:21:44;98627.28;;;5.82;81.35
64078;BME280;51039;49.696;10.808;2023-04-27T05:24:10;98624.19;;;5.62;81.29
64078;BME280;51039;49.696;10.808;2023-04-27T05:26:40;98621.53;;;5.79;81.97
64078;BME280;51039;49.696;10.808;2023-04-27T05:29:06;98622.84;;;5.83;80.63
64078;BME280;51039;49.696;10.808;2023-04-27T05:31:32;98628.78;;;5.68;81.90
64078;BME280;51039;49.696;10.808;2023-04-27T05:33:57;98630.25;;;5.87;81.19
64078;BME280;51039;49.696;10.808;2023-04-27T05:36:22;98635.00;;;6.00;80.86
64078;BME280;51039;49.696;10.808;2023-04-27T05:38:47;98634.47;;;6.29;81.00
64078;BME280;51039;49.696;10.808;2023-04-27T05:41:13;98624.91;;;6.45;79.60
64078;BME280;51039;49.696;10.808;2023-04-27T05:43:38;98630.78;;;6.55;78.99
64078;BME280;51039;49.696;10.808;2023-04-27T05:46:03;98637.34;;;6.59;79.25
64078;BME280;51039;49.696;10.808;2023-04-27T05:48:29;98634.00;;;6.65;79.10
64078;BME280;51039;49.696;10.808;2023-04-27T05:50:58;98628.38;;;6.77;78.61
64078;BME280;51039;49.696;10.808;2023-04-27T05:53:25;98631.22;;;6.98;77.97
64078;BME280;51039;49.696;10.808;2023-04-27T05:55:50;98638.88;;;7.16;77.20
64078;BME280;51039;49.696;10.808;2023-04-27T05:58:15;98631.41;;;7.28;75.35
64078;BME280;51039;49.696;10.808;2023-04-27T06:00:41;98629.56;;;7.28;75.66
64078;BME280;51039;49.696;10.808;2023-04-27T06:03:06;98633.25;;;7.42;76.08
64078;BME280;51039;49.696;10.808;2023-04-27T06:05:31;98634.09;;;7.66;74.74
64078;BME280;51039;49.696;10.808;2023-04-27T06:07:58;98623.75;;;7.33;73.63
64078;BME280;51039;49.696;10.808;2023-04-27T06:10:23;98638.66;;;7.26;73.22
64078;BME280;51039;49.696;10.808;2023-04-27T06:12:48;98638.19;;;7.45;74.78
64078;BME280;51039;49.696;10.808;2023-04-27T06:15:14;98641.16;;;7.42;74.62
64078;BME280;51039;49.696;10.808;2023-04-27T06:17:39;98640.34;;;7.42;74.09
64078;BME280;51039;49.696;10.808;2023-04-27T06:20:07;98641.75;;;7.30;73.33
64078;BME280;51039;49.696;10.808;2023-04-27T06:22:34;98644.16;;;7.39;75.06
64078;BME280;51039;49.696;10.808;2023-04-27T06:25:00;98649.97;;;7.03;72.54
64078;BME280;51039;49.696;10.808;2023-04-27T06:27:26;98653.44;;;7.27;72.32
64078;BME280;51039;49.696;10.808;2023-04-27T06:29:51;98648.97;;;7.36;70.92
64078;BME280;51039;49.696;10.808;2023-04-27T06:32:16;98655.81;;;7.45;70.14
64078;BME280;51039;49.696;10.808;2023-04-27T06:34:42;98653.53;;;7.42;68.84
64078;BME280;51039;49.696;10.808;2023-04-27T06:37:07;98651.69;;;7.51;69.15
64078;BME280;51039;49.696;10.808;2023-04-27T06:39:33;98653.94;;;7.77;68.74
64078;BME280;51039;49.696;10.808;2023-04-27T06:41:59;98663.38;;;7.71;66.97
64078;BME280;51039;49.696;10.808;2023-04-27T06:44:24;98655.81;;;7.68;67.45
64078;BME280;51039;49.696;10.808;2023-04-27T06:46:50;98651.66;;;7.74;68.03
64078;BME280;51039;49.696;10.808;2023-04-27T06:49:15;98645.56;;;8.11;66.43
64078;BME280;51039;49.696;10.808;2023-04-27T06:51:40;98654.94;;;8.29;64.45
64078;BME280;51039;49.696;10.808;2023-04-27T06:54:06;98651.81;;;8.10;64.61
64078;BME280;51039;49.696;10.808;2023-04-27T06:56:31;98652.63;;;8.63;63.93
64078;BME280;51039;49.696;10.808;2023-04-27T06:58:57;98650.84;;;9.00;62.39
64078;BME280;51039;49.696;10.808;2023-04-27T07:01:22;98657.94;;;9.36;61.24
64078;BME280;51039;49.696;10.808;2023-04-27T07:03:47;98656.69;;;9.54;60.19
64078;BME280;51039;49.696;10.808;2023-04-27T07:06:13;98660.38;;;9.74;59.21
64078;BME280;51039;49.696;10.808;2023-04-27T07:08:39;98652.84;;;10.28;57.30
64078;BME280;51039;49.696;10.808;2023-04-27T07:11:04;98660.13;;;10.47;56.30
64078;BME280;51039;49.696;10.808;2023-04-27T07:13:30;98655.00;;;10.80;55.80
64078;BME280;51039;49.696;10.808;2023-04-27T07:15:55;98660.59;;;11.06;54.42
64078;BME280;51039;49.696;10.808;2023-04-27T07:18:24;98661.19;;;10.53;56.67
64078;BME280;51039;49.696;10.808;2023-04-27T07:20:52;98655.88;;;10.25;58.02
64078;BME280;51039;49.696;10.808;2023-04-27T07:23:17;98655.81;;;10.81;56.59
64078;BME280;51039;49.696;10.808;2023-04-27T07:25:42;98658.03;;;11.32;55.98
64078;BME280;51039;49.696;10.808;2023-04-27T07:28:09;98652.63;;;11.81;54.13
64078;BME280;51039;49.696;10.808;2023-04-27T07:30:34;98653.97;;;12.70;52.74
64078;BME280;51039;49.696;10.808;2023-04-27T07:33:00;98655.69;;;13.03;49.17
64078;BME280;51039;49.696;10.808;2023-04-27T07:35:26;98650.56;;;13.53;47.77
64078;BME280;51039;49.696;10.808;2023-04-27T07:37:52;98660.34;;;13.59;47.86
64078;BME280;51039;49.696;10.808;2023-04-27T07:40:17;98658.03;;;13.38;48.48
64078;BME280;51039;49.696;10.808;2023-04-27T07:42:42;98652.81;;;14.50;47.22
64078;BME280;51039;49.696;10.808;2023-04-27T07:45:10;98661.72;;;15.48;45.66
64078;BME280;51039;49.696;10.808;2023-04-27T07:47:36;98661.28;;;15.02;45.52
64078;BME280;51039;49.696;10.808;2023-04-27T07:50:01;98664.75;;;14.47;45.05
64078;BME280;51039;49.696;10.808;2023-04-27T07:52:28;98655.69;;;13.48;48.49
64078;BME280;51039;49.696;10.808;2023-04-27T07:54:53;98661.72;;;14.44;47.06
64078;BME280;51039;49.696;10.808;2023-04-27T07:57:18;98663.47;;;14.75;46.57
64078;BME280;51039;49.696;10.808;2023-04-27T07:59:44;98661.25;;;15.51;45.13
64078;BME280;51039;49.696;10.808;2023-04-27T08:02:10;98661.06;;;15.22;45.58
64078;BME280;51039;49.696;10.808;2023-04-27T08:04:35;98657.84;;;14.65;46.13
64078;BME280;51039;49.696;10.808;2023-04-27T08:07:00;98659.84;;;15.18;45.98
64078;BME280;51039;49.696;10.808;2023-04-27T08:09:25;98665.81;;;15.62;44.56
64078;BME280;51039;49.696;10.808;2023-04-27T08:11:51;98660.25;;;16.41;42.55
64078;BME280;51039;49.696;10.808;2023-04-27T08:14:16;98654.72;;;17.07;40.96
64078;BME280;51039;49.696;10.808;2023-04-27T08:16:42;98664.19;;;19.40;36.53
64078;BME280;51039;49.696;10.808;2023-04-27T08:19:10;98665.34;;;20.04;34.60
64078;BME280;51039;49.696;10.808;2023-04-27T08:21:36;98670.53;;;18.12;37.80
64078;BME280;51039;49.696;10.808;2023-04-27T08:24:02;98668.03;;;16.55;41.02
64078;BME280;51039;49.696;10.808;2023-04-27T08:26:29;98669.53;;;18.52;39.21
64078;BME280;51039;49.696;10.808;2023-04-27T08:28:54;98665.97;;;20.16;32.98
64078;BME280;51039;49.696;10.808;2023-04-27T08:31:23;98656.94;;;20.37;32.36
64078;BME280;51039;49.696;10.808;2023-04-27T08:33:50;98660.28;;;19.80;33.08
64078;BME280;51039;49.696;10.808;2023-04-27T08:36:21;98662.38;;;19.73;35.03
64078;BME280;51039;49.696;10.808;2023-04-27T08:38:50;98662.38;;;19.73;33.76
64078;BME280;51039;49.696;10.808;2023-04-27T08:41:19;98656.00;;;20.16;32.12
64078;BME280;51039;49.696;10.808;2023-04-27T08:43:46;98643.84;;;21.09;30.29
64078;BME280;51039;49.696;10.808;2023-04-27T08:46:16;98647.63;;;20.50;31.88
64078;BME280;51039;49.696;10.808;2023-04-27T08:48:46;98655.63;;;20.03;32.32
64078;BME280;51039;49.696;10.808;2023-04-27T08:51:14;98652.84;;;19.38;33.12
64078;BME280;51039;49.696;10.808;2023-04-27T08:53:44;98649.44;;;19.42;33.73
64078;BME280;51039;49.696;10.808;2023-04-27T08:56:13;98652.09;;;18.54;33.38
64078;BME280;51039;49.696;10.808;2023-04-27T08:58:38;98655.00;;;16.94;37.33
64078;BME280;51039;49.696;10.808;2023-04-27T09:01:04;98656.63;;;18.71;34.42
64078;BME280;51039;49.696;10.808;2023-04-27T09:03:31;98641.56;;;20.65;30.93
64078;BME280;51039;49.696;10.808;2023-04-27T09:05:56;98649.00;;;21.11;29.91
64078;BME280;51039;49.696;10.808;2023-04-27T09:08:22;98650.22;;;20.35;30.49
64078;BME280;51039;49.696;10.808;2023-04-27T09:10:48;98634.09;;;20.88;29.70
64078;BME280;51039;49.696;10.808;2023-04-27T09:13:14;98647.63;;;20.50;29.32
64078;BME280;51039;49.696;10.808;2023-04-27T09:15:41;98633.19;;;20.67;29.30
64078;BME280;51039;49.696;10.808;2023-04-27T09:18:15;98632.97;;;21.93;28.30
64078;BME280;51039;49.696;10.808;2023-04-27T09:20:49;98631.91;;;19.94;29.82
64078;BME280;51039;49.696;10.808;2023-04-27T09:25:57;98628.75;;;18.16;33.47
64078;BME280;51039;49.696;10.808;2023-04-27T09:28:28;98615.03;;;20.04;31.01
64078;BME280;51039;49.696;10.808;2023-04-27T09:30:57;98628.59;;;19.28;31.22
64078;BME280;51039;49.696;10.808;2023-04-27T09:35:48;98611.41;;;20.68;29.46
64078;BME280;51039;49.696;10.808;2023-04-27T09:38:15;98627.34;;;18.69;32.87
64078;BME280;51039;49.696;10.808;2023-04-27T09:40:45;98615.47;;;18.04;32.96
64078;BME280;51039;49.696;10.808;2023-04-27T09:43:10;98608.50;;;18.42;31.31
64078;BME280;51039;49.696;10.808;2023-04-27T09:45:36;98603.50;;;20.56;29.12
64078;BME280;51039;49.696;10.808;2023-04-27T09:48:03;98609.09;;;21.03;30.72
64078;BME280;51039;49.696;10.808;2023-04-27T09:50:30;98604.41;;;22.88;26.13
64078;BME280;51039;49.696;10.808;2023-04-27T09:53:00;98600.25;;;22.46;26.41
64078;BME280;51039;49.696;10.808;2023-04-27T09:55:30;98600.44;;;22.75;26.66
64078;BME280;51039;49.696;10.808;2023-04-27T10:09:24;98593.66;;;20.67;28.23
64078;BME280;51039;49.696;10.808;2023-04-27T10:11:51;98591.38;;;21.22;27.64
64078;BME280;51039;49.696;10.808;2023-04-27T10:14:21;98590.88;;;22.07;28.56
64078;BME280;51039;49.696;10.808;2023-04-27T10:16:54;98592.25;;;21.48;29.21
64078;BME280;51039;49.696;10.808;2023-04-27T10:19:21;98592.78;;;21.71;28.59
64078;BME280;51039;49.696;10.808;2023-04-27T10:21:51;98591.19;;;21.54;27.83
64078;BME280;51039;49.696;10.808;2023-04-27T10:24:36;98593.53;;;21.30;29.88
64078;BME280;51039;49.696;10.808;2023-04-27T10:27:06;98591.41;;;21.94;28.99
64078;BME280;51039;49.696;10.808;2023-04-27T10:29:36;98591.66;;;22.39;27.71
64078;BME280;51039;49.696;10.808;2023-04-27T10:34:36;98582.53;;;21.78;26.86
64078;BME280;51039;49.696;10.808;2023-04-27T10:37:07;98584.75;;;20.67;27.92
64078;BME280;51039;49.696;10.808;2023-04-27T10:39:35;98586.00;;;18.87;30.78
64078;BME280;51039;49.696;10.808;2023-04-27T10:42:04;98580.19;;;20.19;29.66
64078;BME280;51039;49.696;10.808;2023-04-27T10:44:31;98575.53;;;21.87;28.34
64078;BME280;51039;49.696;10.808;2023-04-27T10:46:59;98573.13;;;21.65;26.93
64078;BME280;51039;49.696;10.808;2023-04-27T10:49:40;98573.38;;;22.85;28.32
64078;BME280;51039;49.696;10.808;2023-04-27T10:52:06;98565.50;;;21.26;27.74
64078;BME280;51039;49.696;10.808;2023-04-27T10:54:33;98563.94;;;21.61;28.81
64078;BME280;51039;49.696;10.808;2023-04-27T10:57:09;98573.13;;;21.81;28.82
64078;BME280;51039;49.696;10.808;2023-04-27T10:59:46;98563.94;;;21.41;30.52
64078;BME280;51039;49.696;10.808;2023-04-27T11:02:24;98565.09;;;20.66;27.51
64078;BME280;51039;49.696;10.808;2023-04-27T11:04:50;98559.75;;;20.82;29.73
64078;BME280;51039;49.696;10.808;2023-04-27T11:07:22;98567.88;;;20.29;29.13
64078;BME280;51039;49.696;10.808;2023-04-27T11:09:52;98553.81;;;20.74;27.83
64078;BME280;51039;49.696;10.808;2023-04-27T11:12:18;98562.84;;;20.48;29.95
64078;BME280;51039;49.696;10.808;2023-04-27T11:14:43;98558.09;;;20.70;30.08
64078;BME280;51039;49.696;10.808;2023-04-27T11:17:08;98562.28;;;21.14;30.54
64078;BME280;51039;49.696;10.808;2023-04-27T11:19:43;98563.56;;;20.81;29.95
64078;BME280;51039;49.696;10.808;2023-04-27T11:22:12;98566.16;;;20.60;30.50
64078;BME280;51039;49.696;10.808;2023-04-27T11:24:50;98564.66;;;19.89;28.22
64078;BME280;51039;49.696;10.808;2023-04-27T11:27:16;98557.66;;;20.36;27.90
64078;BME280;51039;49.696;10.808;2023-04-27T11:29:43;98558.03;;;19.37;29.12
64078;BME280;51039;49.696;10.808;2023-04-27T11:32:17;98560.19;;;19.08;29.46
64078;BME280;51039;49.696;10.808;2023-04-27T11:34:53;98569.34;;;19.39;33.15
64078;BME280;51039;49.696;10.808;2023-04-27T11:37:21;98567.38;;;19.30;34.01
64078;BME280;51039;49.696;10.808;2023-04-27T11:39:48;98561.22;;;19.67;31.84
64078;BME280;51039;49.696;10.808;2023-04-27T11:42:18;98569.16;;;19.51;31.51
64078;BME280;51039;49.696;10.808;2023-04-27T11:44:53;98561.66;;;18.94;31.07
64078;BME280;51039;49.696;10.808;2023-04-27T11:47:20;98559.63;;;19.06;31.83
64078;BME280;51039;49.696;10.808;2023-04-27T11:49:56;98563.75;;;18.70;33.35
64078;BME280;51039;49.696;10.808;2023-04-27T11:52:36;98555.44;;;19.80;31.43
64078;BME280;51039;49.696;10.808;2023-04-27T11:55:04;98556.06;;;20.98;29.78
64078;BME280;51039;49.696;10.808;2023-04-27T11:57:30;98555.06;;;20.56;28.05
64078;BME280;51039;49.696;10.808;2023-04-27T11:59:57;98549.53;;;19.78;29.34
64078;BME280;51039;49.696;10.808;2023-04-27T12:02:27;98548.78;;;20.35;31.44
64078;BME280;51039;49.696;10.808;2023-04-27T12:04:53;98549.22;;;20.70;30.47
64078;BME280;51039;49.696;10.808;2023-04-27T12:07:19;98538.63;;;19.62;28.91
64078;BME280;51039;49.696;10.808;2023-04-27T12:09:45;98546.09;;;19.83;30.33
64078;BME280;51039;49.696;10.808;2023-04-27T12:12:11;98549.06;;;19.54;30.61
64078;BME280;51039;49.696;10.808;2023-04-27T12:14:37;98546.28;;;19.43;30.86
64078;BME280;51039;49.696;10.808;2023-04-27T12:17:03;98545.41;;;19.38;32.05
64078;BME280;51039;49.696;10.808;2023-04-27T12:19:28;98536.00;;;19.68;32.11
64078;BME280;51039;49.696;10.808;2023-04-27T12:21:54;98535.75;;;19.69;31.78
64078;BME280;51039;49.696;10.808;2023-04-27T12:24:21;98529.66;;;19.84;30.58
64078;BME280;51039;49.696;10.808;2023-04-27T12:26:47;98535.81;;;20.22;31.09
64078;BME280;51039;49.696;10.808;2023-04-27T12:29:12;98532.56;;;20.20;29.53
64078;BME280;51039;49.696;10.808;2023-04-27T12:31:38;98536.06;;;19.73;29.40
64078;BME280;51039;49.696;10.808;2023-04-27T12:34:03;98525.84;;;20.17;31.82
64078;BME280;51039;49.696;10.808;2023-04-27T12:36:29;98529.69;;;20.37;28.75
64078;BME280;51039;49.696;10.808;2023-04-27T12:38:59;98536.31;;;20.14;32.13
64078;BME280;51039;49.696;10.808;2023-04-27T12:41:37;98528.09;;;20.41;30.21
64078;BME280;51039;49.696;10.808;2023-04-27T12:44:03;98534.81;;;20.44;30.04
64078;BME280;51039;49.696;10.808;2023-04-27T12:46:28;98532.75;;;20.03;32.10
64078;BME280;51039;49.696;10.808;2023-04-27T12:48:53;98532.31;;;19.74;30.73
64078;BME280;51039;49.696;10.808;2023-04-27T12:51:20;98527.44;;;19.38;30.67
64078;BME280;51039;49.696;10.808;2023-04-27T12:53:46;98523.78;;;19.87;29.65
64078;BME280;51039;49.696;10.808;2023-04-27T12:56:11;98528.09;;;20.41;31.37
64078;BME280;51039;49.696;10.808;2023-04-27T12:58:37;98525.09;;;20.27;30.27
64078;BME280;51039;49.696;10.808;2023-04-27T13:01:02;98508.59;;;20.08;30.64
64078;BME280;51039;49.696;10.808;2023-04-27T13:03:27;98515.84;;;19.65;32.21
64078;BME280;51039;49.696;10.808;2023-04-27T13:05:53;98532.56;;;19.72;32.27
64078;BME280;51039;49.696;10.808;2023-04-27T13:08:19;98534.97;;;19.74;31.06
64078;BME280;51039;49.696;10.808;2023-04-27T13:10:45;98520.25;;;19.81;30.87